sensor_id;sensor_type;location;lat;lon;timestamp;P1;durP1;ratioP1;P2;durP2;ratioP2
26516;SDS011;14190;51.342;6.338;2023-03-19T00:00:51;6.08;;;4.37;;
26516;SDS011;14190;51.342;6.338;2023-03-19T00:03:19;8.85;;;3.85;;
26516;SDS011;14190;51.342;6.338;2023-03-19T00:05:50;4.65;;;4.17;;
26516;SDS011;14190;51.342;6.338;2023-03-19T00:08:18;7.62;;;4.33;;
26516;SDS011;14190;51.342;6.338;2023-03-19T00:10:46;8.15;;;4.40;;
26516;SDS011;14190;51.342;6.338;2023-03-19T00:13:14;6.72;;;3.98;;
26516;SDS011;14190;51.342;6.338;2023-03-19T00:15:41;6.67;;;4.15;;
26516;SDS011;14190;51.342;6.338;2023-03-19T00:18:08;6.55;;;4.42;;
26516;SDS011;14190;51.342;6.338;2023-03-19T00:20:36;13.03;;;4.92;;
26516;SDS011;14190;51.342;6.338;2023-03-19T00:23:03;5.22;;;4.58;;
26516;SDS011;14190;51.342;6.338;2023-03-19T00:25:31;7.00;;;4.75;;
26516;SDS011;14190;51.342;6.338;2023-03-19T00:27:59;5.72;;;4.62;;
26516;SDS011;14190;51.342;6.338;2023-03-19T00:30:26;7.80;;;4.85;;
26516;SDS011;14190;51.342;6.338;2023-03-19T00:32:53;7.33;;;4.78;;
26516;SDS011;14190;51.342;6.338;2023-03-19T00:35:21;5.35;;;4.53;;
26516;SDS011;14190;51.342;6.338;2023-03-19T00:37:48;5.45;;;4.83;;
26516;SDS011;14190;51.342;6.338;2023-03-19T00:40:15;6.70;;;4.87;;
26516;SDS011;14190;51.342;6.338;2023-03-19T00:42:43;7.22;;;4.33;;
26516;SDS011;14190;51.342;6.338;2023-03-19T00:45:11;5.10;;;4.10;;
26516;SDS011;14190;51.342;6.338;2023-03-19T00:47:38;10.32;;;4.50;;
26516;SDS011;14190;51.342;6.338;2023-03-19T00:50:06;7.65;;;4.22;;
26516;SDS011;14190;51.342;6.338;2023-03-19T00:52:33;5.80;;;4.50;;
26516;SDS011;14190;51.342;6.338;2023-03-19T00:55:01;9.40;;;4.58;;
26516;SDS011;14190;51.342;6.338;2023-03-19T00:57:28;7.72;;;4.83;;
26516;SDS011;14190;51.342;6.338;2023-03-19T00:59:57;9.78;;;4.37;;
26516;SDS011;14190;51.342;6.338;2023-03-19T01:02:25;6.42;;;4.62;;
26516;SDS011;14190;51.342;6.338;2023-03-19T01:04:53;5.83;;;4.25;;
26516;SDS011;14190;51.342;6.338;2023-03-19T01:07:20;4.65;;;4.20;;
26516;SDS011;14190;51.342;6.338;2023-03-19T01:09:48;9.53;;;4.85;;
26516;SDS011;14190;51.342;6.338;2023-03-19T01:12:15;7.58;;;4.45;;
26516;SDS011;14190;51.342;6.338;2023-03-19T01:14:44;11.45;;;4.75;;
26516;SDS011;14190;51.342;6.338;2023-03-19T01:17:12;6.67;;;4.53;;
26516;SDS011;14190;51.342;6.338;2023-03-19T01:19:39;8.75;;;5.22;;
26516;SDS011;14190;51.342;6.338;2023-03-19T01:22:07;7.87;;;4.85;;
26516;SDS011;14190;51.342;6.338;2023-03-19T01:24:35;14.30;;;4.67;;
26516;SDS011;14190;51.342;6.338;2023-03-19T01:27:03;9.30;;;5.25;;
26516;SDS011;14190;51.342;6.338;2023-03-19T01:29:33;7.00;;;4.37;;
26516;SDS011;14190;51.342;6.338;2023-03-19T01:32:02;7.73;;;4.83;;
26516;SDS011;14190;51.342;6.338;2023-03-19T01:34:43;5.83;;;4.17;;
26516;SDS011;14190;51.342;6.338;2023-03-19T01:37:13;8.95;;;4.20;;
26516;SDS011;14190;51.342;6.338;2023-03-19T01:39:42;5.50;;;4.60;;
26516;SDS011;14190;51.342;6.338;2023-03-19T01:44:46;7.78;;;4.72;;
26516;SDS011;14190;51.342;6.338;2023-03-19T01:47:33;11.20;;;4.83;;
26516;SDS011;14190;51.342;6.338;2023-03-19T01:50:20;6.55;;;4.20;;
26516;SDS011;14190;51.342;6.338;2023-03-19T01:52:42;7.42;;;4.22;;
26516;SDS011;14190;51.342;6.338;2023-03-19T01:55:12;7.80;;;4.37;;
26516;SDS011;14190;51.342;6.338;2023-03-19T01:57:44;5.20;;;3.50;;
26516;SDS011;14190;51.342;6.338;2023-03-19T02:00:16;7.70;;;3.98;;
26516;SDS011;14190;51.342;6.338;2023-03-19T02:02:43;6.72;;;3.77;;
26516;SDS011;14190;51.342;6.338;2023-03-19T02:05:13;9.75;;;3.90;;
26516;SDS011;14190;51.342;6.338;2023-03-19T02:07:43;7.03;;;3.50;;
26516;SDS011;14190;51.342;6.338;2023-03-19T02:10:13;8.30;;;4.33;;
26516;SDS011;14190;51.342;6.338;2023-03-19T02:12:40;8.00;;;4.53;;
26516;SDS011;14190;51.342;6.338;2023-03-19T02:15:08;7.00;;;3.25;;
26516;SDS011;14190;51.342;6.338;2023-03-19T02:17:35;5.28;;;3.62;;
26516;SDS011;14190;51.342;6.338;2023-03-19T02:22:35;6.33;;;3.67;;
26516;SDS011;14190;51.342;6.338;2023-03-19T02:25:12;4.75;;;3.33;;
26516;SDS011;14190;51.342;6.338;2023-03-19T02:27:40;6.90;;;4.12;;
26516;SDS011;14190;51.342;6.338;2023-03-19T02:30:18;11.90;;;5.60;;
26516;SDS011;14190;51.342;6.338;2023-03-19T02:32:45;16.05;;;6.75;;
26516;SDS011;14190;51.342;6.338;2023-03-19T02:35:13;22.58;;;9.33;;
26516;SDS011;14190;51.342;6.338;2023-03-19T02:37:41;8.90;;;4.50;;
26516;SDS011;14190;51.342;6.338;2023-03-19T02:40:10;13.00;;;4.97;;
26516;SDS011;14190;51.342;6.338;2023-03-19T02:42:37;5.47;;;3.37;;
26516;SDS011;14190;51.342;6.338;2023-03-19T02:45:05;6.58;;;3.67;;
26516;SDS011;14190;51.342;6.338;2023-03-19T02:47:33;5.25;;;3.42;;
26516;SDS011;14190;51.342;6.338;2023-03-19T02:50:00;5.53;;;3.33;;
26516;SDS011;14190;51.342;6.338;2023-03-19T02:52:27;5.42;;;3.85;;
26516;SDS011;14190;51.342;6.338;2023-03-19T02:54:55;5.87;;;2.87;;
26516;SDS011;14190;51.342;6.338;2023-03-19T02:57:23;6.65;;;3.58;;
26516;SDS011;14190;51.342;6.338;2023-03-19T02:59:51;6.95;;;3.95;;
26516;SDS011;14190;51.342;6.338;2023-03-19T03:02:18;5.67;;;3.65;;
26516;SDS011;14190;51.342;6.338;2023-03-19T03:04:46;6.03;;;3.60;;
26516;SDS011;14190;51.342;6.338;2023-03-19T03:07:13;7.67;;;3.47;;
26516;SDS011;14190;51.342;6.338;2023-03-19T03:09:41;9.23;;;4.10;;
26516;SDS011;14190;51.342;6.338;2023-03-19T03:12:09;8.18;;;4.28;;
26516;SDS011;14190;51.342;6.338;2023-03-19T03:14:37;8.85;;;4.58;;
26516;SDS011;14190;51.342;6.338;2023-03-19T03:17:06;6.37;;;4.17;;
26516;SDS011;14190;51.342;6.338;2023-03-19T03:19:34;6.25;;;4.12;;
26516;SDS011;14190;51.342;6.338;2023-03-19T03:22:02;8.08;;;4.30;;
26516;SDS011;14190;51.342;6.338;2023-03-19T03:24:29;10.25;;;4.37;;
26516;SDS011;14190;51.342;6.338;2023-03-19T03:26:57;8.78;;;3.92;;
26516;SDS011;14190;51.342;6.338;2023-03-19T03:29:24;8.00;;;4.15;;
26516;SDS011;14190;51.342;6.338;2023-03-19T03:31:51;9.13;;;4.05;;
26516;SDS011;14190;51.342;6.338;2023-03-19T03:34:19;6.53;;;3.83;;
26516;SDS011;14190;51.342;6.338;2023-03-19T03:36:46;8.13;;;3.87;;
26516;SDS011;14190;51.342;6.338;2023-03-19T03:39:14;6.35;;;4.40;;
26516;SDS011;14190;51.342;6.338;2023-03-19T03:41:41;5.72;;;4.15;;
26516;SDS011;14190;51.342;6.338;2023-03-19T03:44:09;5.42;;;3.58;;
26516;SDS011;14190;51.342;6.338;2023-03-19T03:46:38;9.15;;;5.20;;
26516;SDS011;14190;51.342;6.338;2023-03-19T03:49:07;6.87;;;4.05;;
26516;SDS011;14190;51.342;6.338;2023-03-19T03:51:35;8.78;;;4.90;;
26516;SDS011;14190;51.342;6.338;2023-03-19T03:54:03;7.30;;;4.10;;
26516;SDS011;14190;51.342;6.338;2023-03-19T03:56:30;17.20;;;4.92;;
26516;SDS011;14190;51.342;6.338;2023-03-19T03:58:58;6.40;;;3.95;;
26516;SDS011;14190;51.342;6.338;2023-03-19T04:01:26;8.75;;;4.60;;
26516;SDS011;14190;51.342;6.338;2023-03-19T04:03:54;9.20;;;4.75;;
26516;SDS011;14190;51.342;6.338;2023-03-19T04:06:22;8.20;;;4.40;;
26516;SDS011;14190;51.342;6.338;2023-03-19T04:08:51;5.55;;;4.10;;
26516;SDS011;14190;51.342;6.338;2023-03-19T04:11:19;6.28;;;4.22;;
26516;SDS011;14190;51.342;6.338;2023-03-19T04:13:47;7.62;;;4.47;;
26516;SDS011;14190;51.342;6.338;2023-03-19T04:16:14;6.25;;;4.60;;
26516;SDS011;14190;51.342;6.338;2023-03-19T04:18:41;7.40;;;4.37;;
26516;SDS011;14190;51.342;6.338;2023-03-19T04:21:09;8.85;;;5.42;;
26516;SDS011;14190;51.342;6.338;2023-03-19T04:23:36;7.67;;;4.40;;
26516;SDS011;14190;51.342;6.338;2023-03-19T04:26:04;12.23;;;5.08;;
26516;SDS011;14190;51.342;6.338;2023-03-19T04:28:33;7.92;;;4.87;;
26516;SDS011;14190;51.342;6.338;2023-03-19T04:31:01;9.68;;;5.53;;
26516;SDS011;14190;51.342;6.338;2023-03-19T04:33:30;7.85;;;5.12;;
26516;SDS011;14190;51.342;6.338;2023-03-19T04:35:58;11.93;;;5.17;;
26516;SDS011;14190;51.342;6.338;2023-03-19T04:38:26;7.60;;;5.62;;
26516;SDS011;14190;51.342;6.338;2023-03-19T04:40:54;9.93;;;5.78;;
26516;SDS011;14190;51.342;6.338;2023-03-19T04:43:23;10.32;;;5.97;;
26516;SDS011;14190;51.342;6.338;2023-03-19T04:45:50;10.28;;;5.40;;
26516;SDS011;14190;51.342;6.338;2023-03-19T04:48:18;7.62;;;6.22;;
26516;SDS011;14190;51.342;6.338;2023-03-19T04:50:46;10.88;;;5.58;;
26516;SDS011;14190;51.342;6.338;2023-03-19T04:53:15;8.80;;;5.70;;
26516;SDS011;14190;51.342;6.338;2023-03-19T04:55:42;12.68;;;7.53;;
26516;SDS011;14190;51.342;6.338;2023-03-19T04:58:12;13.28;;;7.37;;
26516;SDS011;14190;51.342;6.338;2023-03-19T05:00:40;8.78;;;7.35;;
26516;SDS011;14190;51.342;6.338;2023-03-19T05:03:07;9.98;;;7.30;;
26516;SDS011;14190;51.342;6.338;2023-03-19T05:05:35;10.63;;;7.08;;
26516;SDS011;14190;51.342;6.338;2023-03-19T05:08:04;12.58;;;6.72;;
26516;SDS011;14190;51.342;6.338;2023-03-19T05:10:32;12.07;;;7.80;;
26516;SDS011;14190;51.342;6.338;2023-03-19T05:12:59;12.73;;;7.33;;
26516;SDS011;14190;51.342;6.338;2023-03-19T05:15:27;11.65;;;7.17;;
26516;SDS011;14190;51.342;6.338;2023-03-19T05:17:56;8.30;;;7.12;;
26516;SDS011;14190;51.342;6.338;2023-03-19T05:20:32;13.90;;;8.18;;
26516;SDS011;14190;51.342;6.338;2023-03-19T05:23:01;10.00;;;7.10;;
26516;SDS011;14190;51.342;6.338;2023-03-19T05:25:32;14.17;;;8.17;;
26516;SDS011;14190;51.342;6.338;2023-03-19T05:28:01;14.80;;;8.08;;
26516;SDS011;14190;51.342;6.338;2023-03-19T05:30:29;9.93;;;7.70;;
26516;SDS011;14190;51.342;6.338;2023-03-19T05:32:58;13.43;;;7.50;;
26516;SDS011;14190;51.342;6.338;2023-03-19T05:35:30;15.60;;;8.28;;
26516;SDS011;14190;51.342;6.338;2023-03-19T05:37:58;14.13;;;8.45;;
26516;SDS011;14190;51.342;6.338;2023-03-19T05:40:25;11.15;;;7.87;;
26516;SDS011;14190;51.342;6.338;2023-03-19T05:42:53;9.18;;;7.62;;
26516;SDS011;14190;51.342;6.338;2023-03-19T05:45:22;9.43;;;7.92;;
26516;SDS011;14190;51.342;6.338;2023-03-19T05:47:51;12.33;;;8.45;;
26516;SDS011;14190;51.342;6.338;2023-03-19T05:50:19;10.82;;;8.60;;
26516;SDS011;14190;51.342;6.338;2023-03-19T05:52:52;13.18;;;8.78;;
26516;SDS011;14190;51.342;6.338;2023-03-19T05:55:19;12.88;;;9.33;;
26516;SDS011;14190;51.342;6.338;2023-03-19T05:57:48;14.03;;;9.70;;
26516;SDS011;14190;51.342;6.338;2023-03-19T06:00:18;10.65;;;8.80;;
26516;SDS011;14190;51.342;6.338;2023-03-19T06:02:47;14.65;;;9.63;;
26516;SDS011;14190;51.342;6.338;2023-03-19T06:05:22;12.15;;;8.95;;
26516;SDS011;14190;51.342;6.338;2023-03-19T06:07:51;16.50;;;9.05;;
26516;SDS011;14190;51.342;6.338;2023-03-19T06:10:20;13.38;;;9.15;;
26516;SDS011;14190;51.342;6.338;2023-03-19T06:12:49;11.33;;;8.93;;
26516;SDS011;14190;51.342;6.338;2023-03-19T06:15:27;12.47;;;8.25;;
26516;SDS011;14190;51.342;6.338;2023-03-19T06:18:02;10.55;;;8.48;;
26516;SDS011;14190;51.342;6.338;2023-03-19T06:20:30;12.15;;;8.33;;
26516;SDS011;14190;51.342;6.338;2023-03-19T06:22:58;16.42;;;8.03;;
26516;SDS011;14190;51.342;6.338;2023-03-19T06:25:26;13.13;;;8.43;;
26516;SDS011;14190;51.342;6.338;2023-03-19T06:27:53;15.63;;;8.68;;
26516;SDS011;14190;51.342;6.338;2023-03-19T06:30:25;9.83;;;8.15;;
26516;SDS011;14190;51.342;6.338;2023-03-19T06:32:53;8.93;;;7.67;;
26516;SDS011;14190;51.342;6.338;2023-03-19T06:35:21;10.53;;;7.33;;
26516;SDS011;14190;51.342;6.338;2023-03-19T06:37:48;12.05;;;7.72;;
26516;SDS011;14190;51.342;6.338;2023-03-19T06:40:16;11.12;;;7.53;;
26516;SDS011;14190;51.342;6.338;2023-03-19T06:42:46;11.18;;;8.60;;
26516;SDS011;14190;51.342;6.338;2023-03-19T06:45:15;11.97;;;8.43;;
26516;SDS011;14190;51.342;6.338;2023-03-19T06:47:44;9.30;;;7.53;;
26516;SDS011;14190;51.342;6.338;2023-03-19T06:50:16;10.48;;;7.45;;
26516;SDS011;14190;51.342;6.338;2023-03-19T06:52:43;14.07;;;7.72;;
26516;SDS011;14190;51.342;6.338;2023-03-19T06:55:11;10.10;;;7.25;;
26516;SDS011;14190;51.342;6.338;2023-03-19T06:57:38;10.23;;;7.72;;
26516;SDS011;14190;51.342;6.338;2023-03-19T07:00:06;8.75;;;7.20;;
26516;SDS011;14190;51.342;6.338;2023-03-19T07:02:35;11.70;;;7.50;;
26516;SDS011;14190;51.342;6.338;2023-03-19T07:05:03;9.40;;;7.10;;
26516;SDS011;14190;51.342;6.338;2023-03-19T07:07:30;11.25;;;7.83;;
26516;SDS011;14190;51.342;6.338;2023-03-19T07:09:58;10.53;;;8.55;;
26516;SDS011;14190;51.342;6.338;2023-03-19T07:12:25;8.88;;;7.47;;
26516;SDS011;14190;51.342;6.338;2023-03-19T07:17:22;11.35;;;8.20;;
26516;SDS011;14190;51.342;6.338;2023-03-19T07:19:50;13.53;;;9.15;;
26516;SDS011;14190;51.342;6.338;2023-03-19T07:22:18;12.25;;;7.75;;
26516;SDS011;14190;51.342;6.338;2023-03-19T07:24:45;14.15;;;9.10;;
26516;SDS011;14190;51.342;6.338;2023-03-19T07:27:13;12.37;;;8.30;;
26516;SDS011;14190;51.342;6.338;2023-03-19T07:29:40;11.28;;;8.38;;
26516;SDS011;14190;51.342;6.338;2023-03-19T07:32:08;12.10;;;9.95;;
26516;SDS011;14190;51.342;6.338;2023-03-19T07:34:36;17.17;;;9.33;;
26516;SDS011;14190;51.342;6.338;2023-03-19T07:37:03;13.20;;;9.48;;
26516;SDS011;14190;51.342;6.338;2023-03-19T07:39:31;11.83;;;8.98;;
26516;SDS011;14190;51.342;6.338;2023-03-19T07:41:59;9.93;;;7.17;;
26516;SDS011;14190;51.342;6.338;2023-03-19T07:44:28;11.83;;;8.48;;
26516;SDS011;14190;51.342;6.338;2023-03-19T07:46:55;11.80;;;7.90;;
26516;SDS011;14190;51.342;6.338;2023-03-19T07:49:22;8.88;;;7.22;;
26516;SDS011;14190;51.342;6.338;2023-03-19T07:51:50;12.15;;;8.00;;
26516;SDS011;14190;51.342;6.338;2023-03-19T07:54:17;9.75;;;7.85;;
26516;SDS011;14190;51.342;6.338;2023-03-19T07:56:45;9.73;;;7.58;;
26516;SDS011;14190;51.342;6.338;2023-03-19T07:59:12;10.53;;;8.10;;
26516;SDS011;14190;51.342;6.338;2023-03-19T08:01:39;9.80;;;7.90;;
26516;SDS011;14190;51.342;6.338;2023-03-19T08:04:07;9.83;;;8.60;;
26516;SDS011;14190;51.342;6.338;2023-03-19T08:06:34;10.30;;;8.30;;
26516;SDS011;14190;51.342;6.338;2023-03-19T08:09:01;9.50;;;8.23;;
26516;SDS011;14190;51.342;6.338;2023-03-19T08:11:29;9.78;;;8.35;;
26516;SDS011;14190;51.342;6.338;2023-03-19T08:13:56;8.73;;;7.83;;
26516;SDS011;14190;51.342;6.338;2023-03-19T08:16:24;12.07;;;8.78;;
26516;SDS011;14190;51.342;6.338;2023-03-19T08:18:51;10.30;;;9.10;;
26516;SDS011;14190;51.342;6.338;2023-03-19T08:21:19;11.00;;;9.38;;
26516;SDS011;14190;51.342;6.338;2023-03-19T08:23:46;9.38;;;8.48;;
26516;SDS011;14190;51.342;6.338;2023-03-19T08:26:13;12.93;;;9.90;;
26516;SDS011;14190;51.342;6.338;2023-03-19T08:28:41;11.68;;;9.10;;
26516;SDS011;14190;51.342;6.338;2023-03-19T08:31:12;12.18;;;9.35;;
26516;SDS011;14190;51.342;6.338;2023-03-19T08:33:40;10.93;;;9.23;;
26516;SDS011;14190;51.342;6.338;2023-03-19T08:36:13;10.82;;;9.83;;
26516;SDS011;14190;51.342;6.338;2023-03-19T08:38:41;11.28;;;8.85;;
26516;SDS011;14190;51.342;6.338;2023-03-19T08:41:09;10.30;;;8.78;;
26516;SDS011;14190;51.342;6.338;2023-03-19T08:43:36;11.15;;;9.63;;
26516;SDS011;14190;51.342;6.338;2023-03-19T08:46:03;10.78;;;8.25;;
26516;SDS011;14190;51.342;6.338;2023-03-19T08:48:31;12.68;;;10.18;;
26516;SDS011;14190;51.342;6.338;2023-03-19T08:50:59;10.85;;;9.35;;
26516;SDS011;14190;51.342;6.338;2023-03-19T08:53:28;10.55;;;9.20;;
26516;SDS011;14190;51.342;6.338;2023-03-19T08:55:57;8.73;;;7.83;;
26516;SDS011;14190;51.342;6.338;2023-03-19T08:58:24;13.35;;;8.78;;
26516;SDS011;14190;51.342;6.338;2023-03-19T09:00:52;9.20;;;8.30;;
26516;SDS011;14190;51.342;6.338;2023-03-19T09:03:20;11.33;;;9.53;;
26516;SDS011;14190;51.342;6.338;2023-03-19T09:05:47;11.83;;;9.55;;
26516;SDS011;14190;51.342;6.338;2023-03-19T09:08:14;11.70;;;9.08;;
26516;SDS011;14190;51.342;6.338;2023-03-19T09:10:42;14.10;;;8.83;;
26516;SDS011;14190;51.342;6.338;2023-03-19T09:13:09;9.80;;;8.15;;
26516;SDS011;14190;51.342;6.338;2023-03-19T09:15:36;10.18;;;7.65;;
26516;SDS011;14190;51.342;6.338;2023-03-19T09:18:04;10.23;;;7.53;;
26516;SDS011;14190;51.342;6.338;2023-03-19T09:20:32;8.93;;;6.30;;
26516;SDS011;14190;51.342;6.338;2023-03-19T09:22:59;7.60;;;5.92;;
26516;SDS011;14190;51.342;6.338;2023-03-19T09:25:26;9.23;;;6.17;;
26516;SDS011;14190;51.342;6.338;2023-03-19T09:27:54;9.78;;;5.75;;
26516;SDS011;14190;51.342;6.338;2023-03-19T09:30:21;6.92;;;5.45;;
26516;SDS011;14190;51.342;6.338;2023-03-19T09:32:49;9.93;;;5.53;;
26516;SDS011;14190;51.342;6.338;2023-03-19T09:35:16;8.48;;;6.03;;
26516;SDS011;14190;51.342;6.338;2023-03-19T09:37:46;9.48;;;5.47;;
26516;SDS011;14190;51.342;6.338;2023-03-19T09:40:21;7.35;;;5.67;;
26516;SDS011;14190;51.342;6.338;2023-03-19T09:43:06;11.08;;;7.15;;
26516;SDS011;14190;51.342;6.338;2023-03-19T09:45:32;6.80;;;6.10;;
26516;SDS011;14190;51.342;6.338;2023-03-19T09:48:05;8.90;;;7.33;;
26516;SDS011;14190;51.342;6.338;2023-03-19T09:50:32;10.10;;;7.85;;
26516;SDS011;14190;51.342;6.338;2023-03-19T09:53:07;10.43;;;7.72;;
26516;SDS011;14190;51.342;6.338;2023-03-19T09:55:43;9.60;;;7.03;;
26516;SDS011;14190;51.342;6.338;2023-03-19T09:58:07;10.67;;;8.07;;
26516;SDS011;14190;51.342;6.338;2023-03-19T10:00:33;9.25;;;7.33;;
26516;SDS011;14190;51.342;6.338;2023-03-19T10:03:09;12.43;;;8.00;;
26516;SDS011;14190;51.342;6.338;2023-03-19T10:05:31;9.25;;;7.90;;
26516;SDS011;14190;51.342;6.338;2023-03-19T10:08:17;13.13;;;8.58;;
26516;SDS011;14190;51.342;6.338;2023-03-19T10:11:08;8.38;;;6.78;;
26516;SDS011;14190;51.342;6.338;2023-03-19T10:15:55;9.10;;;6.85;;
26516;SDS011;14190;51.342;6.338;2023-03-19T10:18:28;13.48;;;8.00;;
26516;SDS011;14190;51.342;6.338;2023-03-19T10:20:53;8.50;;;6.53;;
26516;SDS011;14190;51.342;6.338;2023-03-19T10:25:56;4.97;;;4.45;;
26516;SDS011;14190;51.342;6.338;2023-03-19T10:28:23;4.50;;;3.80;;
26516;SDS011;14190;51.342;6.338;2023-03-19T10:31:40;5.42;;;3.37;;
26516;SDS011;14190;51.342;6.338;2023-03-19T10:33:22;4.85;;;3.62;;
26516;SDS011;14190;51.342;6.338;2023-03-19T10:35:57;5.47;;;3.42;;
26516;SDS011;14190;51.342;6.338;2023-03-19T10:38:25;2.83;;;2.55;;
26516;SDS011;14190;51.342;6.338;2023-03-19T10:41:59;4.97;;;3.05;;
26516;SDS011;14190;51.342;6.338;2023-03-19T10:43:32;3.25;;;2.95;;
26516;SDS011;14190;51.342;6.338;2023-03-19T10:46:00;3.98;;;3.25;;
26516;SDS011;14190;51.342;6.338;2023-03-19T10:48:28;4.67;;;3.10;;
26516;SDS011;14190;51.342;6.338;2023-03-19T10:50:57;5.08;;;3.42;;
26516;SDS011;14190;51.342;6.338;2023-03-19T10:53:34;4.87;;;3.20;;
26516;SDS011;14190;51.342;6.338;2023-03-19T10:56:16;4.47;;;3.35;;
26516;SDS011;14190;51.342;6.338;2023-03-19T10:58:54;5.35;;;4.35;;
26516;SDS011;14190;51.342;6.338;2023-03-19T11:01:12;4.92;;;3.50;;
26516;SDS011;14190;51.342;6.338;2023-03-19T11:03:48;5.47;;;3.87;;
26516;SDS011;14190;51.342;6.338;2023-03-19T11:08:53;6.55;;;4.35;;
26516;SDS011;14190;51.342;6.338;2023-03-19T11:13:54;7.25;;;4.00;;
26516;SDS011;14190;51.342;6.338;2023-03-19T11:16:24;6.83;;;4.05;;
26516;SDS011;14190;51.342;6.338;2023-03-19T11:18:52;6.30;;;4.20;;
26516;SDS011;14190;51.342;6.338;2023-03-19T11:21:24;4.78;;;4.28;;
26516;SDS011;14190;51.342;6.338;2023-03-19T11:23:51;8.70;;;4.28;;
26516;SDS011;14190;51.342;6.338;2023-03-19T11:26:20;4.67;;;3.30;;
26516;SDS011;14190;51.342;6.338;2023-03-19T11:28:51;5.15;;;3.25;;
26516;SDS011;14190;51.342;6.338;2023-03-19T11:36:37;8.23;;;3.45;;
26516;SDS011;14190;51.342;6.338;2023-03-19T11:44:26;5.58;;;3.02;;
26516;SDS011;14190;51.342;6.338;2023-03-19T11:47:06;4.78;;;3.05;;
26516;SDS011;14190;51.342;6.338;2023-03-19T11:49:50;5.58;;;2.83;;
26516;SDS011;14190;51.342;6.338;2023-03-19T11:52:24;5.35;;;3.12;;
26516;SDS011;14190;51.342;6.338;2023-03-19T11:55:10;4.58;;;3.27;;
26516;SDS011;14190;51.342;6.338;2023-03-19T11:57:45;9.70;;;3.98;;
26516;SDS011;14190;51.342;6.338;2023-03-19T12:05:32;8.58;;;3.35;;
26516;SDS011;14190;51.342;6.338;2023-03-19T12:08:07;5.78;;;3.05;;
26516;SDS011;14190;51.342;6.338;2023-03-19T12:10:38;6.50;;;3.05;;
26516;SDS011;14190;51.342;6.338;2023-03-19T12:13:27;5.45;;;3.40;;
26516;SDS011;14190;51.342;6.338;2023-03-19T12:16:03;4.78;;;2.85;;
26516;SDS011;14190;51.342;6.338;2023-03-19T12:21:22;7.50;;;3.95;;
26516;SDS011;14190;51.342;6.338;2023-03-19T12:26:23;7.10;;;2.95;;
26516;SDS011;14190;51.342;6.338;2023-03-19T12:36:36;3.08;;;1.77;;
26516;SDS011;14190;51.342;6.338;2023-03-19T12:39:09;3.52;;;2.47;;
26516;SDS011;14190;51.342;6.338;2023-03-19T12:41:31;5.92;;;2.22;;
26516;SDS011;14190;51.342;6.338;2023-03-19T12:44:11;3.37;;;1.37;;
26516;SDS011;14190;51.342;6.338;2023-03-19T12:46:35;4.00;;;2.40;;
26516;SDS011;14190;51.342;6.338;2023-03-19T12:51:37;1.77;;;1.22;;
26516;SDS011;14190;51.342;6.338;2023-03-19T12:54:12;2.55;;;0.90;;
26516;SDS011;14190;51.342;6.338;2023-03-19T12:59:12;2.08;;;0.70;;
26516;SDS011;14190;51.342;6.338;2023-03-19T13:01:40;1.98;;;0.80;;
26516;SDS011;14190;51.342;6.338;2023-03-19T13:04:28;5.62;;;0.90;;
26516;SDS011;14190;51.342;6.338;2023-03-19T13:06:42;1.75;;;1.02;;
26516;SDS011;14190;51.342;6.338;2023-03-19T13:09:28;1.82;;;1.30;;
26516;SDS011;14190;51.342;6.338;2023-03-19T13:12:03;1.67;;;1.00;;
26516;SDS011;14190;51.342;6.338;2023-03-19T13:14:51;2.95;;;1.00;;
26516;SDS011;14190;51.342;6.338;2023-03-19T13:17:32;2.75;;;1.15;;
26516;SDS011;14190;51.342;6.338;2023-03-19T13:19:58;1.25;;;0.78;;
26516;SDS011;14190;51.342;6.338;2023-03-19T13:22:33;3.80;;;1.47;;
26516;SDS011;14190;51.342;6.338;2023-03-19T13:25:00;6.47;;;1.40;;
26516;SDS011;14190;51.342;6.338;2023-03-19T13:27:29;1.92;;;1.30;;
26516;SDS011;14190;51.342;6.338;2023-03-19T13:30:05;4.12;;;1.45;;
26516;SDS011;14190;51.342;6.338;2023-03-19T13:32:34;2.10;;;1.22;;
26516;SDS011;14190;51.342;6.338;2023-03-19T13:37:44;2.05;;;0.93;;
26516;SDS011;14190;51.342;6.338;2023-03-19T13:42:58;4.05;;;1.42;;
26516;SDS011;14190;51.342;6.338;2023-03-19T13:45:29;2.95;;;1.32;;
26516;SDS011;14190;51.342;6.338;2023-03-19T13:47:57;3.00;;;1.47;;
26516;SDS011;14190;51.342;6.338;2023-03-19T13:50:27;4.35;;;1.55;;
26516;SDS011;14190;51.342;6.338;2023-03-19T13:55:53;3.52;;;1.30;;
26516;SDS011;14190;51.342;6.338;2023-03-19T13:58:19;4.87;;;1.72;;
26516;SDS011;14190;51.342;6.338;2023-03-19T14:01:05;3.55;;;1.62;;
26516;SDS011;14190;51.342;6.338;2023-03-19T14:03:34;6.62;;;1.75;;
26516;SDS011;14190;51.342;6.338;2023-03-19T14:06:02;3.80;;;1.85;;
26516;SDS011;14190;51.342;6.338;2023-03-19T14:11:00;3.12;;;1.45;;
26516;SDS011;14190;51.342;6.338;2023-03-19T14:16:00;3.17;;;1.50;;
26516;SDS011;14190;51.342;6.338;2023-03-19T14:18:28;4.80;;;1.50;;
26516;SDS011;14190;51.342;6.338;2023-03-19T14:20:56;2.30;;;1.20;;
26516;SDS011;14190;51.342;6.338;2023-03-19T14:23:25;3.62;;;1.35;;
26516;SDS011;14190;51.342;6.338;2023-03-19T14:26:01;3.30;;;1.30;;
26516;SDS011;14190;51.342;6.338;2023-03-19T14:28:31;5.70;;;2.55;;
26516;SDS011;14190;51.342;6.338;2023-03-19T14:30:56;7.25;;;2.92;;
26516;SDS011;14190;51.342;6.338;2023-03-19T14:33:28;8.78;;;4.00;;
26516;SDS011;14190;51.342;6.338;2023-03-19T14:35:54;10.53;;;3.25;;
26516;SDS011;14190;51.342;6.338;2023-03-19T14:40:51;9.43;;;2.92;;
26516;SDS011;14190;51.342;6.338;2023-03-19T14:43:37;8.10;;;3.72;;
26516;SDS011;14190;51.342;6.338;2023-03-19T14:46:03;8.75;;;3.45;;
26516;SDS011;14190;51.342;6.338;2023-03-19T14:53:54;6.70;;;3.17;;
26516;SDS011;14190;51.342;6.338;2023-03-19T14:56:33;7.60;;;3.22;;
26516;SDS011;14190;51.342;6.338;2023-03-19T14:59:00;9.50;;;3.83;;
26516;SDS011;14190;51.342;6.338;2023-03-19T15:01:30;7.65;;;3.45;;
26516;SDS011;14190;51.342;6.338;2023-03-19T15:04:02;11.38;;;3.67;;
26516;SDS011;14190;51.342;6.338;2023-03-19T15:06:32;4.90;;;3.20;;
26516;SDS011;14190;51.342;6.338;2023-03-19T15:09:00;10.00;;;3.70;;
26516;SDS011;14190;51.342;6.338;2023-03-19T15:11:51;11.67;;;3.77;;
26516;SDS011;14190;51.342;6.338;2023-03-19T15:14:21;6.15;;;3.58;;
26516;SDS011;14190;51.342;6.338;2023-03-19T15:16:54;8.08;;;3.60;;
26516;SDS011;14190;51.342;6.338;2023-03-19T15:19:24;5.97;;;3.45;;
26516;SDS011;14190;51.342;6.338;2023-03-19T15:22:02;10.72;;;3.67;;
26516;SDS011;14190;51.342;6.338;2023-03-19T15:24:21;9.45;;;3.80;;
26516;SDS011;14190;51.342;6.338;2023-03-19T15:26:49;9.60;;;3.80;;
26516;SDS011;14190;51.342;6.338;2023-03-19T15:29:28;8.33;;;3.85;;
26516;SDS011;14190;51.342;6.338;2023-03-19T15:31:46;8.93;;;3.22;;
26516;SDS011;14190;51.342;6.338;2023-03-19T15:34:21;8.23;;;3.65;;
26516;SDS011;14190;51.342;6.338;2023-03-19T15:36:51;8.98;;;3.50;;
26516;SDS011;14190;51.342;6.338;2023-03-19T15:39:18;8.10;;;3.27;;
26516;SDS011;14190;51.342;6.338;2023-03-19T15:41:47;8.20;;;3.45;;
26516;SDS011;14190;51.342;6.338;2023-03-19T15:44:17;7.75;;;3.02;;
26516;SDS011;14190;51.342;6.338;2023-03-19T15:46:44;12.10;;;3.42;;
26516;SDS011;14190;51.342;6.338;2023-03-19T15:49:18;17.85;;;4.55;;
26516;SDS011;14190;51.342;6.338;2023-03-19T15:51:44;6.05;;;3.50;;
26516;SDS011;14190;51.342;6.338;2023-03-19T15:54:14;16.20;;;4.92;;
26516;SDS011;14190;51.342;6.338;2023-03-19T15:56:42;17.30;;;5.55;;
26516;SDS011;14190;51.342;6.338;2023-03-19T15:59:09;18.85;;;4.83;;
26516;SDS011;14190;51.342;6.338;2023-03-19T16:01:37;16.80;;;5.28;;
26516;SDS011;14190;51.342;6.338;2023-03-19T16:04:05;13.53;;;4.95;;
26516;SDS011;14190;51.342;6.338;2023-03-19T16:06:36;19.35;;;5.20;;
26516;SDS011;14190;51.342;6.338;2023-03-19T16:11:43;12.95;;;4.70;;